createdAt,value
2018-07-31T05:15:04.164Z,95078.37
2018-07-31T05:17:34.365Z,95074.05
2018-07-31T05:20:04.759Z,95072.49
2018-07-31T05:22:34.520Z,95082.66
2018-07-31T05:25:04.278Z,95081.34
2018-07-31T05:27:34.404Z,95083.32
2018-07-31T05:30:04.110Z,95079.19
2018-07-31T05:32:34.549Z,95085.59
2018-07-31T05:35:04.762Z,95082.51
2018-07-31T05:37:35.091Z,95078.25
2018-07-31T05:40:05.685Z,95074.77
2018-07-31T05:42:35.751Z,95080.47
2018-07-31T05:45:05.993Z,95085.77
2018-07-31T05:47:36.329Z,95085.69
2018-07-31T05:50:07.452Z,95082.80
2018-07-31T05:52:37.264Z,95080.91
2018-07-31T05:55:07.089Z,95082.15
2018-07-31T05:57:37.208Z,95084.16
2018-07-31T06:00:07.883Z,95084.59
2018-07-31T06:02:37.611Z,95079.80
2018-07-31T06:05:07.771Z,95084.83
2018-07-31T06:07:37.474Z,95081.91
2018-07-31T06:10:08.518Z,95081.95
2018-07-31T06:12:38.423Z,95085.26
2018-07-31T06:15:09.260Z,95088.02
2018-07-31T06:17:38.899Z,95087.45
2018-07-31T06:20:13.862Z,95086.36
2018-07-31T06:22:44.572Z,95085.70
2018-07-31T06:25:14.793Z,95084.08
2018-07-31T06:27:45.710Z,95092.03
2018-07-31T06:30:16.002Z,95092.56
2018-07-31T06:32:46.070Z,95090.60
2018-07-31T06:35:16.440Z,95088.93
2018-07-31T06:37:46.475Z,95087.28
2018-07-31T06:40:16.245Z,95093.50
2018-07-31T06:42:45.973Z,95093.42
2018-07-31T06:45:15.685Z,95093.39
2018-07-31T06:47:45.354Z,95093.96
2018-07-31T06:50:15.150Z,95096.09
2018-07-31T06:52:44.958Z,95093.13
2018-07-31T06:55:14.651Z,95093.09
2018-07-31T06:57:44.361Z,95096.61
2018-07-31T07:00:14.296Z,95100.66
2018-07-31T07:02:43.891Z,95095.59
2018-07-31T07:05:13.640Z,95094.25
2018-07-31T07:07:43.759Z,95095.77
2018-07-31T07:10:13.572Z,95094.94
2018-07-31T07:12:43.321Z,95097.41
2018-07-31T07:15:13.400Z,95092.11
2018-07-31T07:17:43.179Z,95091.46
2018-07-31T07:20:12.931Z,95087.73
2018-07-31T07:22:42.926Z,95099.42
2018-07-31T07:25:12.763Z,95100.90
2018-07-31T07:27:43.033Z,95095.08
2018-07-31T07:30:12.831Z,95093.31
2018-07-31T07:32:42.539Z,95099.23
2018-07-31T07:35:12.175Z,95098.44
2018-07-31T07:37:41.944Z,95099.28
2018-07-31T07:40:11.744Z,95103.41
2018-07-31T07:42:41.441Z,95097.41
2018-07-31T07:45:11.154Z,95100.09
2018-07-31T07:47:40.788Z,95106.94
2018-07-31T07:50:10.516Z,95107.04
2018-07-31T07:52:40.195Z,95107.22
2018-07-31T07:55:10.161Z,95109.52
2018-07-31T07:57:40.248Z,95105.70
2018-07-31T08:00:10.950Z,95102.69
2018-07-31T08:02:40.902Z,95107.37
2018-07-31T08:05:10.564Z,95114.86
2018-07-31T08:07:40.627Z,95109.20
2018-07-31T08:10:10.423Z,95109.33
2018-07-31T08:12:40.218Z,95113.80
2018-07-31T08:15:09.999Z,95115.32
2018-07-31T08:17:39.694Z,95105.47
2018-07-31T08:20:09.740Z,95111.29
2018-07-31T08:22:39.600Z,95110.06
2018-07-31T08:25:09.323Z,95109.77
2018-07-31T08:27:39.552Z,95120.30
2018-07-31T08:30:09.315Z,95112.22
2018-07-31T08:32:39.515Z,95110.26
2018-07-31T08:35:09.281Z,95110.36
2018-07-31T08:37:39.428Z,95112.49
2018-07-31T08:40:09.171Z,95104.88
2018-07-31T08:42:38.924Z,95107.70
2018-07-31T08:45:09.194Z,95102.30
2018-07-31T08:47:39.063Z,95097.19
2018-07-31T08:50:09.101Z,95097.48
2018-07-31T08:52:38.818Z,95093.23
2018-07-31T08:55:08.936Z,95092.05
2018-07-31T08:57:38.629Z,95082.05
2018-07-31T09:00:09.872Z,95083.66
2018-07-31T09:02:39.550Z,95089.34
2018-07-31T09:05:09.618Z,95091.03
2018-07-31T09:07:39.813Z,95081.68
2018-07-31T09:10:09.449Z,95080.92
2018-07-31T09:12:39.169Z,95074.10
2018-07-31T09:15:08.907Z,95077.26
2018-07-31T09:17:38.675Z,95074.49
2018-07-31T09:20:08.699Z,95081.21
2018-07-31T09:22:38.501Z,95076.83
2018-07-31T09:25:08.227Z,95075.30
2018-07-31T09:27:37.842Z,95065.72
2018-07-31T09:30:07.639Z,95070.45
2018-07-31T09:32:42.554Z,95073.25
2018-07-31T09:35:12.419Z,95072.94
2018-07-31T09:37:42.246Z,95065.39
2018-07-31T09:40:12.068Z,95077.10
2018-07-31T09:42:41.979Z,95068.32
2018-07-31T09:45:11.932Z,95060.16
2018-07-31T09:47:41.605Z,95069.93
2018-07-31T09:50:11.214Z,95072.42
2018-07-31T09:52:40.868Z,95059.67
2018-07-31T09:55:10.613Z,95062.41
2018-07-31T09:57:40.615Z,95059.67
2018-07-31T10:00:10.522Z,95057.59
2018-07-31T10:02:40.352Z,95048.52
2018-07-31T10:05:10.098Z,95047.51
2018-07-31T10:07:39.903Z,95038.97
2018-07-31T10:10:09.716Z,95042.75
2018-07-31T10:12:39.522Z,95042.48
2018-07-31T10:15:09.448Z,95036.22
2018-07-31T10:17:39.163Z,95037.41
2018-07-31T10:20:08.905Z,95031.85
2018-07-31T10:22:38.564Z,95035.16
2018-07-31T10:25:08.664Z,95023.37
2018-07-31T10:27:38.365Z,95031.67
2018-07-31T10:30:08.671Z,95029.80
2018-07-31T10:32:38.324Z,95022.38
2018-07-31T10:35:09.350Z,95027.41
2018-07-31T10:37:39.496Z,95025.69
2018-07-31T10:40:09.685Z,95023.94
2018-07-31T10:42:39.514Z,95027.52
2018-07-31T10:45:09.207Z,95025.70
2018-07-31T10:47:38.788Z,95030.25
2018-07-31T10:50:08.554Z,95032.63
2018-07-31T10:52:38.450Z,95019.82
2018-07-31T10:55:08.314Z,95016.43
2018-07-31T10:57:38.018Z,95019.16
2018-07-31T11:00:08.139Z,95015.45
2018-07-31T11:02:38.191Z,95018.67
2018-07-31T11:05:08.328Z,95016.84
2018-07-31T11:07:38.540Z,95015.66
2018-07-31T11:10:08.616Z,95013.12
2018-07-31T11:12:38.777Z,95005.33
2018-07-31T11:15:08.444Z,94996.45
2018-07-31T11:17:39.027Z,95003.31
2018-07-31T11:20:09.198Z,94998.63
2018-07-31T11:22:38.962Z,94998.85
2018-07-31T11:25:08.856Z,94992.34
2018-07-31T11:27:38.494Z,94999.62
2018-07-31T11:30:08.754Z,95001.31
2018-07-31T11:32:38.610Z,95005.98
2018-07-31T11:35:08.939Z,94998.80
2018-07-31T11:37:38.598Z,94996.09
2018-07-31T11:40:08.171Z,94996.09
2018-07-31T11:42:37.983Z,94991.41
2018-07-31T11:45:07.660Z,94999.26
2018-07-31T11:47:37.723Z,95003.77
2018-07-31T11:50:07.457Z,94999.97
2018-07-31T11:52:37.165Z,94997.66
2018-07-31T11:55:06.839Z,95002.02
2018-07-31T11:57:36.422Z,94998.35
2018-07-31T12:00:08.394Z,94998.66
2018-07-31T12:02:38.180Z,94990.58
2018-07-31T12:05:09.037Z,94982.25
2018-07-31T12:07:38.868Z,94990.35
2018-07-31T12:10:08.812Z,94989.59
2018-07-31T12:12:38.493Z,94991.20
2018-07-31T12:15:08.355Z,94996.62
2018-07-31T12:17:38.089Z,95001.37
2018-07-31T12:20:07.918Z,95003.84
2018-07-31T12:22:37.636Z,95002.70
2018-07-31T12:25:07.703Z,95013.62
2018-07-31T12:27:37.432Z,95020.31
2018-07-31T12:30:09.538Z,95028.30
2018-07-31T12:32:40.644Z,95027.50
2018-07-31T12:35:10.939Z,95032.81
2018-07-31T12:37:41.014Z,95031.42
2018-07-31T12:40:10.807Z,95029.69
2018-07-31T12:42:40.847Z,95028.66
2018-07-31T12:45:10.843Z,95029.95
2018-07-31T12:47:40.565Z,95035.52
2018-07-31T12:50:10.848Z,95020.67
2018-07-31T12:52:40.603Z,95019.08
2018-07-31T12:55:10.848Z,95017.09
2018-07-31T12:57:40.606Z,95029.44
2018-07-31T13:00:10.396Z,95035.06
2018-07-31T13:02:40.744Z,95035.18
2018-07-31T13:05:10.416Z,95052.39
2018-07-31T13:07:40.270Z,95045.06
2018-07-31T13:10:10.479Z,95044.06
2018-07-31T13:12:40.330Z,95052.01
2018-07-31T13:15:10.164Z,95051.28
2018-07-31T13:17:40.051Z,95067.05
2018-07-31T13:20:09.749Z,95064.31
2018-07-31T13:22:39.421Z,95063.55
2018-07-31T13:25:09.120Z,95066.84
2018-07-31T13:27:38.909Z,95070.72
2018-07-31T13:30:09.071Z,95076.05
2018-07-31T13:32:38.702Z,95074.20
2018-07-31T13:35:08.580Z,95077.19
2018-07-31T13:37:38.475Z,95081.00
2018-07-31T13:40:08.848Z,95085.92
2018-07-31T13:42:38.538Z,95082.54
2018-07-31T13:45:08.449Z,95082.47
2018-07-31T13:47:38.243Z,95080.33
2018-07-31T13:50:07.841Z,95080.80
2018-07-31T13:52:37.786Z,95084.31
2018-07-31T13:55:07.609Z,95094.54
2018-07-31T13:57:37.452Z,95094.01
2018-07-31T14:00:07.368Z,95093.20
2018-07-31T14:02:37.128Z,95084.78
2018-07-31T14:05:06.868Z,95084.58
2018-07-31T14:07:36.582Z,95090.73
2018-07-31T14:10:06.562Z,95077.83
2018-07-31T14:12:36.492Z,95075.38
2018-07-31T14:15:06.338Z,95073.69
2018-07-31T14:17:36.255Z,95071.59
2018-07-31T14:20:06.162Z,95074.91
2018-07-31T14:22:35.999Z,95071.84
2018-07-31T14:25:06.045Z,95065.18
2018-07-31T14:27:36.471Z,95072.58
2018-07-31T14:30:06.649Z,95071.41
2018-07-31T14:32:36.743Z,95074.94
2018-07-31T14:35:06.427Z,95083.67
2018-07-31T14:37:36.222Z,95083.30
2018-07-31T14:40:06.115Z,95085.47
2018-07-31T14:42:35.819Z,95085.81
2018-07-31T14:45:05.934Z,95086.66
2018-07-31T14:47:35.488Z,95095.84
2018-07-31T14:50:05.683Z,95097.45
2018-07-31T14:52:35.314Z,95105.92
2018-07-31T14:55:05.163Z,95092.66
2018-07-31T14:57:35.126Z,95093.84
2018-07-31T15:00:05.473Z,95097.11
2018-07-31T15:02:35.983Z,95095.58
2018-07-31T15:05:05.881Z,95097.95
2018-07-31T15:07:35.602Z,95100.14
2018-07-31T15:10:05.891Z,95104.98
2018-07-31T15:12:35.860Z,95099.77
2018-07-31T15:15:06.155Z,95096.52
2018-07-31T15:17:36.167Z,95099.86
2018-07-31T15:20:06.003Z,95105.57
2018-07-31T15:22:35.726Z,95093.17
2018-07-31T15:25:05.962Z,95091.52
2018-07-31T15:27:35.740Z,95089.82
2018-07-31T15:30:06.586Z,95089.00
2018-07-31T15:32:36.257Z,95086.59
2018-07-31T15:35:05.954Z,95084.03
2018-07-31T15:37:35.925Z,95087.98
2018-07-31T15:40:05.783Z,95094.28
2018-07-31T15:42:35.602Z,95092.30
2018-07-31T15:45:05.510Z,95092.60
2018-07-31T15:47:35.556Z,95097.95
2018-07-31T15:50:05.884Z,95090.40
2018-07-31T15:52:35.528Z,95092.22
2018-07-31T15:55:05.845Z,95091.24
2018-07-31T15:57:35.948Z,95093.26
2018-07-31T16:00:08.559Z,95092.55
2018-07-31T16:02:38.444Z,95094.88
2018-07-31T16:05:09.366Z,95078.92
2018-07-31T16:07:39.087Z,95084.64
2018-07-31T16:10:08.615Z,95083.25
2018-07-31T16:12:38.335Z,95076.52
2018-07-31T16:15:08.052Z,95079.08
2018-07-31T16:17:37.749Z,95076.27
2018-07-31T16:20:07.541Z,95072.60
2018-07-31T16:22:37.183Z,95071.89
2018-07-31T16:25:07.118Z,95076.87
2018-07-31T16:27:36.908Z,95072.40
2018-07-31T16:30:07.416Z,95069.90
2018-07-31T16:32:37.208Z,95067.94
2018-07-31T16:35:07.261Z,95068.11
2018-07-31T16:37:36.938Z,95070.88
2018-07-31T16:40:06.741Z,95061.14
2018-07-31T16:42:36.898Z,95067.02
2018-07-31T16:45:06.808Z,95073.73
2018-07-31T16:47:36.635Z,95071.01
2018-07-31T16:50:06.634Z,95078.54
2018-07-31T16:52:36.406Z,95082.17
2018-07-31T16:55:06.354Z,95088.04
2018-07-31T16:57:36.259Z,95088.12
2018-07-31T17:00:07.224Z,95078.64
2018-07-31T17:02:37.155Z,95072.84
2018-07-31T17:05:07.003Z,95074.78
2018-07-31T17:07:36.848Z,95078.00
2018-07-31T17:10:13.373Z,95076.61
2018-07-31T17:12:42.962Z,95083.80
2018-07-31T17:15:12.691Z,95089.86
2018-07-31T17:17:42.357Z,95103.14
2018-07-31T17:20:12.087Z,95100.95
2018-07-31T17:22:41.775Z,95100.31
2018-07-31T17:25:11.474Z,95098.63
2018-07-31T17:27:41.622Z,95101.22
2018-07-31T17:30:11.486Z,95116.88
2018-07-31T17:32:41.258Z,95114.73
2018-07-31T17:35:11.176Z,95121.84
2018-07-31T17:37:47.165Z,95131.00
2018-07-31T17:40:16.741Z,95131.38
2018-07-31T17:42:46.450Z,95132.91
2018-07-31T17:45:16.215Z,95141.41
2018-07-31T17:47:45.987Z,95141.56
2018-07-31T17:50:15.597Z,95139.38
2018-07-31T17:52:45.550Z,95135.53
2018-07-31T17:55:15.286Z,95137.54
2018-07-31T17:57:45.177Z,95143.30
2018-07-31T18:00:14.835Z,95146.52
2018-07-31T18:02:45.646Z,95147.50
2018-07-31T18:05:15.293Z,95153.39
2018-07-31T18:07:45.408Z,95158.73
2018-07-31T18:10:15.258Z,95160.70
2018-07-31T18:12:44.868Z,95171.27
2018-07-31T18:15:14.550Z,95171.19
2018-07-31T18:17:44.323Z,95175.08
2018-07-31T18:20:13.964Z,95174.33
2018-07-31T18:22:43.768Z,95182.19
2018-07-31T18:25:13.559Z,95184.48
2018-07-31T18:27:43.282Z,95182.96
2018-07-31T18:30:12.972Z,95185.20
2018-07-31T18:32:42.716Z,95172.44
2018-07-31T18:35:12.699Z,95173.77
2018-07-31T18:37:42.196Z,95176.41
2018-07-31T18:40:11.867Z,95179.13
2018-07-31T18:42:41.595Z,95181.05
2018-07-31T18:45:11.178Z,95178.89
2018-07-31T18:47:40.835Z,95182.83
2018-07-31T19:01:58.039Z,95177.13
2018-07-31T19:04:27.854Z,95177.92
2018-07-31T19:06:57.445Z,95176.48
2018-07-31T19:09:27.241Z,95173.14
2018-07-31T19:11:56.912Z,95166.48
2018-07-31T19:14:26.508Z,95169.92
2018-07-31T19:16:56.466Z,95172.52
2018-07-31T19:19:26.371Z,95178.25
2018-07-31T19:21:56.097Z,95177.52
2018-07-31T19:24:25.796Z,95177.63
2018-07-31T19:26:55.388Z,95182.14
2018-07-31T19:29:25.657Z,95176.19
2018-07-31T19:31:56.296Z,95172.69
2018-07-31T19:34:26.656Z,95170.55
2018-07-31T19:36:57.099Z,95172.81
2018-07-31T19:39:27.222Z,95175.68
2018-07-31T19:41:57.246Z,95172.02
2018-07-31T19:44:27.719Z,95176.16
2018-07-31T19:46:57.590Z,95178.70
2018-07-31T19:49:28.988Z,95172.23
2018-07-31T19:51:58.636Z,95180.56
2018-07-31T19:54:28.619Z,95176.45
2018-07-31T19:56:58.905Z,95176.03
2018-07-31T19:59:29.120Z,95177.25
2018-07-31T20:01:58.931Z,95170.75
2018-07-31T20:04:28.658Z,95174.41
2018-07-31T20:06:58.370Z,95177.60
2018-07-31T20:09:29.174Z,95176.35
2018-07-31T20:11:59.519Z,95173.20
2018-07-31T20:14:29.153Z,95172.31
2018-07-31T20:16:58.919Z,95177.22
2018-07-31T20:19:28.931Z,95188.55
2018-07-31T20:21:58.567Z,95191.89
2018-07-31T20:24:28.424Z,95190.39
2018-07-31T20:26:58.406Z,95183.17
2018-07-31T20:29:28.101Z,95185.07
2018-07-31T20:31:57.963Z,95182.65
2018-07-31T20:34:27.835Z,95179.62
2018-07-31T20:36:57.780Z,95189.25
2018-07-31T20:39:27.341Z,95190.27
2018-07-31T20:41:57.676Z,95190.87
2018-07-31T20:44:27.431Z,95192.72
2018-07-31T20:46:58.464Z,95197.09
2018-07-31T20:49:28.188Z,95189.51
2018-07-31T20:51:57.976Z,95191.36
2018-07-31T20:54:27.855Z,95191.84
2018-07-31T20:56:57.570Z,95195.17
2018-07-31T20:59:27.809Z,95208.34
2018-07-31T21:01:57.543Z,95207.80
2018-07-31T21:04:27.572Z,95199.66
2018-07-31T21:06:57.307Z,95202.47
2018-07-31T21:09:27.084Z,95204.48
2018-07-31T21:11:56.998Z,95210.98
2018-07-31T21:14:26.815Z,95218.16
2018-07-31T21:16:56.626Z,95213.69
2018-07-31T21:19:26.845Z,95204.61
2018-07-31T21:21:56.424Z,95204.33
2018-07-31T21:24:26.073Z,95199.30
2018-07-31T21:26:55.950Z,95191.39
2018-07-31T21:29:25.737Z,95200.98
2018-07-31T21:31:55.338Z,95194.26
2018-07-31T21:34:25.060Z,95194.05
2018-07-31T21:36:54.650Z,95197.54
2018-07-31T21:39:24.470Z,95199.63
2018-07-31T21:41:54.081Z,95198.45
2018-07-31T21:44:23.947Z,95189.29
2018-07-31T21:46:53.902Z,95197.06
2018-07-31T21:49:23.529Z,95187.95
2018-07-31T21:51:53.229Z,95182.45
2018-07-31T21:54:22.889Z,95188.16
2018-07-31T21:56:52.515Z,95186.73
2018-07-31T21:59:22.327Z,95181.23
2018-07-31T22:01:52.032Z,95178.56
2018-07-31T22:04:21.635Z,95184.17
2018-07-31T22:06:51.562Z,95175.53
2018-07-31T22:09:26.247Z,95178.42
2018-07-31T22:11:56.345Z,95184.84
2018-07-31T22:14:25.950Z,95188.40
2018-07-31T22:16:56.028Z,95196.98
2018-07-31T22:19:25.719Z,95185.88
2018-07-31T22:21:55.326Z,95182.41
2018-07-31T22:24:24.942Z,95183.45
2018-07-31T22:26:54.536Z,95187.06
2018-07-31T22:29:24.327Z,95176.52
2018-07-31T22:31:53.878Z,95168.92
2018-07-31T22:34:23.571Z,95167.80
2018-07-31T22:36:53.194Z,95173.44
2018-07-31T22:39:23.000Z,95168.55
2018-07-31T22:41:52.872Z,95172.54
2018-07-31T22:44:22.534Z,95165.60
2018-07-31T22:46:52.276Z,95168.70
2018-07-31T22:49:22.041Z,95162.00
2018-07-31T22:51:51.743Z,95164.13
2018-07-31T22:54:21.534Z,95169.50
2018-07-31T22:56:51.275Z,95171.16
2018-07-31T22:59:21.282Z,95164.56
2018-07-31T23:01:50.955Z,95166.94
2018-07-31T23:04:20.520Z,95169.13
2018-07-31T23:06:50.198Z,95176.67
2018-07-31T23:09:19.926Z,95170.31
2018-07-31T23:11:49.470Z,95169.30
2018-07-31T23:14:19.159Z,95170.02
2018-07-31T23:16:48.895Z,95163.09
2018-07-31T23:19:18.610Z,95159.10
2018-07-31T23:21:48.379Z,95161.91
2018-07-31T23:24:18.124Z,95164.84
2018-07-31T23:26:47.921Z,95159.27
2018-07-31T23:29:17.667Z,95162.29
2018-07-31T23:31:47.388Z,95161.36
2018-07-31T23:34:17.895Z,95154.96
2018-07-31T23:36:47.602Z,95160.80
2018-07-31T23:39:17.244Z,95162.02
2018-07-31T23:41:47.025Z,95158.78
2018-07-31T23:44:16.547Z,95156.44
2018-07-31T23:46:46.244Z,95154.28
2018-07-31T23:49:16.040Z,95155.86
2018-07-31T23:51:45.678Z,95164.12
2018-07-31T23:54:15.378Z,95166.91
2018-07-31T23:56:45.144Z,95172.00
2018-07-31T23:59:15.255Z,95171.62
